sensor_id;sensor_type;location;lat;lon;timestamp;P1;durP1;ratioP1;P2;durP2;ratioP2
25327;SDS011;13279;51.300;12.394;2023-02-22T00:00:20;12.93;;;7.37;;
25327;SDS011;13279;51.300;12.394;2023-02-22T00:02:54;13.67;;;6.47;;
25327;SDS011;13279;51.300;12.394;2023-02-22T00:05:24;12.37;;;7.50;;
25327;SDS011;13279;51.300;12.394;2023-02-22T00:07:53;11.77;;;7.20;;
25327;SDS011;13279;51.300;12.394;2023-02-22T00:10:22;12.37;;;6.93;;
25327;SDS011;13279;51.300;12.394;2023-02-22T00:12:51;12.67;;;6.63;;
25327;SDS011;13279;51.300;12.394;2023-02-22T00:15:21;13.03;;;7.33;;
25327;SDS011;13279;51.300;12.394;2023-02-22T00:17:53;14.33;;;8.23;;
25327;SDS011;13279;51.300;12.394;2023-02-22T00:20:21;22.60;;;8.07;;
25327;SDS011;13279;51.300;12.394;2023-02-22T00:22:50;12.00;;;6.93;;
25327;SDS011;13279;51.300;12.394;2023-02-22T00:25:18;12.80;;;6.77;;
25327;SDS011;13279;51.300;12.394;2023-02-22T00:27:46;16.17;;;7.93;;
25327;SDS011;13279;51.300;12.394;2023-02-22T00:30:17;13.50;;;7.83;;
25327;SDS011;13279;51.300;12.394;2023-02-22T00:32:47;13.20;;;7.33;;
25327;SDS011;13279;51.300;12.394;2023-02-22T00:35:16;17.77;;;7.63;;
25327;SDS011;13279;51.300;12.394;2023-02-22T00:37:47;18.67;;;7.77;;
25327;SDS011;13279;51.300;12.394;2023-02-22T00:40:16;12.43;;;6.47;;
25327;SDS011;13279;51.300;12.394;2023-02-22T00:42:45;13.50;;;6.70;;
25327;SDS011;13279;51.300;12.394;2023-02-22T00:45:14;14.97;;;7.40;;
25327;SDS011;13279;51.300;12.394;2023-02-22T00:47:42;14.00;;;6.90;;
25327;SDS011;13279;51.300;12.394;2023-02-22T00:52:46;11.87;;;7.00;;
25327;SDS011;13279;51.300;12.394;2023-02-22T00:55:15;13.60;;;7.60;;
25327;SDS011;13279;51.300;12.394;2023-02-22T00:57:43;11.20;;;6.67;;
25327;SDS011;13279;51.300;12.394;2023-02-22T01:00:14;14.10;;;6.40;;
25327;SDS011;13279;51.300;12.394;2023-02-22T01:02:44;13.37;;;5.97;;
25327;SDS011;13279;51.300;12.394;2023-02-22T01:05:17;16.23;;;6.53;;
25327;SDS011;13279;51.300;12.394;2023-02-22T01:07:46;11.57;;;5.80;;
25327;SDS011;13279;51.300;12.394;2023-02-22T01:10:14;16.13;;;6.40;;
25327;SDS011;13279;51.300;12.394;2023-02-22T01:12:43;14.17;;;6.40;;
25327;SDS011;13279;51.300;12.394;2023-02-22T01:15:11;15.00;;;6.97;;
25327;SDS011;13279;51.300;12.394;2023-02-22T01:17:39;14.90;;;7.70;;
25327;SDS011;13279;51.300;12.394;2023-02-22T01:20:11;13.87;;;7.07;;
25327;SDS011;13279;51.300;12.394;2023-02-22T01:22:41;16.90;;;7.83;;
25327;SDS011;13279;51.300;12.394;2023-02-22T01:25:11;12.83;;;7.03;;
25327;SDS011;13279;51.300;12.394;2023-02-22T01:27:42;9.93;;;6.00;;
25327;SDS011;13279;51.300;12.394;2023-02-22T01:30:11;15.47;;;7.23;;
25327;SDS011;13279;51.300;12.394;2023-02-22T01:32:40;14.80;;;7.63;;
25327;SDS011;13279;51.300;12.394;2023-02-22T01:35:09;15.60;;;7.83;;
25327;SDS011;13279;51.300;12.394;2023-02-22T01:37:38;13.43;;;6.80;;
25327;SDS011;13279;51.300;12.394;2023-02-22T01:40:08;13.53;;;7.83;;
25327;SDS011;13279;51.300;12.394;2023-02-22T01:42:42;14.37;;;7.07;;
25327;SDS011;13279;51.300;12.394;2023-02-22T01:48:16;12.47;;;6.83;;
25327;SDS011;13279;51.300;12.394;2023-02-22T01:50:47;12.13;;;6.37;;
25327;SDS011;13279;51.300;12.394;2023-02-22T01:53:22;13.77;;;6.43;;
25327;SDS011;13279;51.300;12.394;2023-02-22T01:55:52;14.60;;;6.53;;
25327;SDS011;13279;51.300;12.394;2023-02-22T01:58:21;14.87;;;6.73;;
25327;SDS011;13279;51.300;12.394;2023-02-22T02:00:51;13.70;;;6.30;;
25327;SDS011;13279;51.300;12.394;2023-02-22T02:03:19;11.57;;;6.40;;
25327;SDS011;13279;51.300;12.394;2023-02-22T02:05:52;10.53;;;6.60;;
25327;SDS011;13279;51.300;12.394;2023-02-22T02:08:29;11.43;;;7.03;;
25327;SDS011;13279;51.300;12.394;2023-02-22T02:11:02;14.10;;;7.30;;
25327;SDS011;13279;51.300;12.394;2023-02-22T02:13:30;12.83;;;7.43;;
25327;SDS011;13279;51.300;12.394;2023-02-22T02:15:59;15.17;;;6.73;;
25327;SDS011;13279;51.300;12.394;2023-02-22T02:18:27;14.47;;;7.57;;
25327;SDS011;13279;51.300;12.394;2023-02-22T02:21:09;13.37;;;7.03;;
25327;SDS011;13279;51.300;12.394;2023-02-22T02:27:02;14.87;;;7.23;;
25327;SDS011;13279;51.300;12.394;2023-02-22T02:32:44;17.00;;;7.77;;
25327;SDS011;13279;51.300;12.394;2023-02-22T02:35:19;14.23;;;7.67;;
25327;SDS011;13279;51.300;12.394;2023-02-22T02:37:56;20.17;;;7.30;;
25327;SDS011;13279;51.300;12.394;2023-02-22T02:40:30;14.73;;;7.40;;
25327;SDS011;13279;51.300;12.394;2023-02-22T02:43:05;15.80;;;7.23;;
25327;SDS011;13279;51.300;12.394;2023-02-22T02:45:37;18.23;;;7.90;;
25327;SDS011;13279;51.300;12.394;2023-02-22T02:48:11;16.47;;;7.57;;
25327;SDS011;13279;51.300;12.394;2023-02-22T02:50:41;14.80;;;7.93;;
25327;SDS011;13279;51.300;12.394;2023-02-22T02:53:14;18.40;;;7.93;;
25327;SDS011;13279;51.300;12.394;2023-02-22T02:55:44;19.60;;;8.53;;
25327;SDS011;13279;51.300;12.394;2023-02-22T02:58:15;16.77;;;7.57;;
25327;SDS011;13279;51.300;12.394;2023-02-22T03:00:44;13.73;;;7.47;;
25327;SDS011;13279;51.300;12.394;2023-02-22T03:03:23;19.77;;;7.73;;
25327;SDS011;13279;51.300;12.394;2023-02-22T03:06:15;16.53;;;7.73;;
25327;SDS011;13279;51.300;12.394;2023-02-22T03:08:56;24.80;;;7.93;;
25327;SDS011;13279;51.300;12.394;2023-02-22T03:11:32;18.17;;;7.63;;
25327;SDS011;13279;51.300;12.394;2023-02-22T03:14:08;25.97;;;8.03;;
25327;SDS011;13279;51.300;12.394;2023-02-22T03:16:39;19.47;;;8.93;;
25327;SDS011;13279;51.300;12.394;2023-02-22T03:19:15;18.40;;;8.70;;
25327;SDS011;13279;51.300;12.394;2023-02-22T03:21:49;20.40;;;9.37;;
25327;SDS011;13279;51.300;12.394;2023-02-22T03:24:24;23.07;;;9.00;;
25327;SDS011;13279;51.300;12.394;2023-02-22T03:26:57;22.47;;;8.40;;
25327;SDS011;13279;51.300;12.394;2023-02-22T03:29:36;16.97;;;8.73;;
25327;SDS011;13279;51.300;12.394;2023-02-22T03:32:08;20.90;;;9.93;;
25327;SDS011;13279;51.300;12.394;2023-02-22T03:34:42;22.07;;;10.30;;
25327;SDS011;13279;51.300;12.394;2023-02-22T03:37:16;16.27;;;8.30;;
25327;SDS011;13279;51.300;12.394;2023-02-22T03:39:46;20.80;;;9.83;;
25327;SDS011;13279;51.300;12.394;2023-02-22T03:42:19;21.30;;;9.23;;
25327;SDS011;13279;51.300;12.394;2023-02-22T03:44:49;20.87;;;10.17;;
25327;SDS011;13279;51.300;12.394;2023-02-22T03:47:20;25.20;;;10.57;;
25327;SDS011;13279;51.300;12.394;2023-02-22T03:49:55;24.63;;;10.77;;
25327;SDS011;13279;51.300;12.394;2023-02-22T03:52:26;17.80;;;9.17;;
25327;SDS011;13279;51.300;12.394;2023-02-22T03:54:54;21.50;;;9.23;;
25327;SDS011;13279;51.300;12.394;2023-02-22T03:57:23;19.63;;;9.27;;
25327;SDS011;13279;51.300;12.394;2023-02-22T04:00:02;22.73;;;10.10;;
25327;SDS011;13279;51.300;12.394;2023-02-22T04:02:38;18.17;;;8.73;;
25327;SDS011;13279;51.300;12.394;2023-02-22T04:05:11;25.23;;;9.97;;
25327;SDS011;13279;51.300;12.394;2023-02-22T04:07:40;20.50;;;10.17;;
25327;SDS011;13279;51.300;12.394;2023-02-22T04:10:09;23.07;;;10.70;;
25327;SDS011;13279;51.300;12.394;2023-02-22T04:12:38;18.20;;;8.87;;
25327;SDS011;13279;51.300;12.394;2023-02-22T04:15:07;21.70;;;9.47;;
25327;SDS011;13279;51.300;12.394;2023-02-22T04:17:37;17.83;;;9.57;;
25327;SDS011;13279;51.300;12.394;2023-02-22T04:20:06;21.23;;;9.43;;
25327;SDS011;13279;51.300;12.394;2023-02-22T04:22:44;20.23;;;8.77;;
25327;SDS011;13279;51.300;12.394;2023-02-22T04:25:13;18.00;;;8.67;;
25327;SDS011;13279;51.300;12.394;2023-02-22T04:27:42;25.07;;;10.33;;
25327;SDS011;13279;51.300;12.394;2023-02-22T04:30:10;16.67;;;8.93;;
25327;SDS011;13279;51.300;12.394;2023-02-22T04:32:38;25.47;;;9.50;;
25327;SDS011;13279;51.300;12.394;2023-02-22T04:35:07;22.80;;;9.93;;
25327;SDS011;13279;51.300;12.394;2023-02-22T04:37:35;24.97;;;10.50;;
25327;SDS011;13279;51.300;12.394;2023-02-22T04:40:06;24.47;;;9.67;;
25327;SDS011;13279;51.300;12.394;2023-02-22T04:42:37;23.70;;;11.00;;
25327;SDS011;13279;51.300;12.394;2023-02-22T04:45:05;22.47;;;10.37;;
25327;SDS011;13279;51.300;12.394;2023-02-22T04:47:34;26.93;;;9.33;;
25327;SDS011;13279;51.300;12.394;2023-02-22T04:50:03;22.87;;;10.00;;
25327;SDS011;13279;51.300;12.394;2023-02-22T04:52:31;22.87;;;10.17;;
25327;SDS011;13279;51.300;12.394;2023-02-22T04:54:59;21.13;;;10.00;;
25327;SDS011;13279;51.300;12.394;2023-02-22T04:57:28;20.50;;;9.17;;
25327;SDS011;13279;51.300;12.394;2023-02-22T05:00:03;23.10;;;9.97;;
25327;SDS011;13279;51.300;12.394;2023-02-22T05:03:04;24.93;;;10.13;;
25327;SDS011;13279;51.300;12.394;2023-02-22T05:05:47;24.00;;;9.37;;
25327;SDS011;13279;51.300;12.394;2023-02-22T05:08:29;23.47;;;9.87;;
25327;SDS011;13279;51.300;12.394;2023-02-22T05:11:10;20.90;;;10.43;;
25327;SDS011;13279;51.300;12.394;2023-02-22T05:13:43;19.23;;;9.27;;
25327;SDS011;13279;51.300;12.394;2023-02-22T05:16:14;21.57;;;9.87;;
25327;SDS011;13279;51.300;12.394;2023-02-22T05:18:57;17.77;;;8.70;;
25327;SDS011;13279;51.300;12.394;2023-02-22T05:21:24;16.27;;;9.73;;
25327;SDS011;13279;51.300;12.394;2023-02-22T05:23:51;18.17;;;9.27;;
25327;SDS011;13279;51.300;12.394;2023-02-22T05:26:19;16.90;;;9.03;;
25327;SDS011;13279;51.300;12.394;2023-02-22T05:28:48;17.93;;;8.80;;
25327;SDS011;13279;51.300;12.394;2023-02-22T05:31:15;20.50;;;9.07;;
25327;SDS011;13279;51.300;12.394;2023-02-22T05:33:43;18.37;;;8.43;;
25327;SDS011;13279;51.300;12.394;2023-02-22T05:36:10;16.20;;;8.10;;
25327;SDS011;13279;51.300;12.394;2023-02-22T05:38:38;19.10;;;9.47;;
25327;SDS011;13279;51.300;12.394;2023-02-22T05:41:08;21.67;;;9.03;;
25327;SDS011;13279;51.300;12.394;2023-02-22T05:43:35;19.13;;;9.90;;
25327;SDS011;13279;51.300;12.394;2023-02-22T05:46:04;17.17;;;8.83;;
25327;SDS011;13279;51.300;12.394;2023-02-22T05:48:32;25.57;;;9.93;;
25327;SDS011;13279;51.300;12.394;2023-02-22T05:51:00;20.40;;;9.30;;
25327;SDS011;13279;51.300;12.394;2023-02-22T05:53:28;19.77;;;10.47;;
25327;SDS011;13279;51.300;12.394;2023-02-22T05:55:56;53.07;;;24.70;;
25327;SDS011;13279;51.300;12.394;2023-02-22T05:58:23;20.10;;;9.97;;
25327;SDS011;13279;51.300;12.394;2023-02-22T06:00:51;23.17;;;10.17;;
25327;SDS011;13279;51.300;12.394;2023-02-22T06:03:20;26.20;;;11.27;;
25327;SDS011;13279;51.300;12.394;2023-02-22T06:05:47;19.93;;;9.70;;
25327;SDS011;13279;51.300;12.394;2023-02-22T06:08:15;20.90;;;10.40;;
25327;SDS011;13279;51.300;12.394;2023-02-22T06:10:43;22.73;;;9.80;;
25327;SDS011;13279;51.300;12.394;2023-02-22T06:13:10;19.00;;;10.00;;
25327;SDS011;13279;51.300;12.394;2023-02-22T06:15:37;20.53;;;9.23;;
25327;SDS011;13279;51.300;12.394;2023-02-22T06:18:05;21.00;;;10.20;;
25327;SDS011;13279;51.300;12.394;2023-02-22T06:20:34;22.10;;;9.97;;
25327;SDS011;13279;51.300;12.394;2023-02-22T06:23:01;20.63;;;9.57;;
25327;SDS011;13279;51.300;12.394;2023-02-22T06:25:29;22.00;;;9.77;;
25327;SDS011;13279;51.300;12.394;2023-02-22T06:27:57;17.07;;;9.10;;
25327;SDS011;13279;51.300;12.394;2023-02-22T06:30:25;25.33;;;10.17;;
25327;SDS011;13279;51.300;12.394;2023-02-22T06:32:53;22.17;;;8.90;;
25327;SDS011;13279;51.300;12.394;2023-02-22T06:35:21;21.27;;;9.93;;
25327;SDS011;13279;51.300;12.394;2023-02-22T06:37:50;19.63;;;9.27;;
25327;SDS011;13279;51.300;12.394;2023-02-22T06:40:18;18.97;;;10.03;;
25327;SDS011;13279;51.300;12.394;2023-02-22T06:42:46;20.53;;;10.03;;
25327;SDS011;13279;51.300;12.394;2023-02-22T06:45:14;22.63;;;10.37;;
25327;SDS011;13279;51.300;12.394;2023-02-22T06:47:43;21.93;;;10.63;;
25327;SDS011;13279;51.300;12.394;2023-02-22T06:50:16;18.37;;;9.50;;
25327;SDS011;13279;51.300;12.394;2023-02-22T06:52:46;20.73;;;9.73;;
25327;SDS011;13279;51.300;12.394;2023-02-22T06:55:19;21.70;;;10.17;;
25327;SDS011;13279;51.300;12.394;2023-02-22T06:57:48;20.27;;;9.47;;
25327;SDS011;13279;51.300;12.394;2023-02-22T07:00:16;17.00;;;7.87;;
25327;SDS011;13279;51.300;12.394;2023-02-22T07:02:44;21.07;;;9.63;;
25327;SDS011;13279;51.300;12.394;2023-02-22T07:05:13;17.50;;;10.47;;
25327;SDS011;13279;51.300;12.394;2023-02-22T07:07:42;19.47;;;9.93;;
25327;SDS011;13279;51.300;12.394;2023-02-22T07:10:15;23.87;;;9.27;;
25327;SDS011;13279;51.300;12.394;2023-02-22T07:12:46;21.47;;;9.20;;
25327;SDS011;13279;51.300;12.394;2023-02-22T07:15:14;19.77;;;9.90;;
25327;SDS011;13279;51.300;12.394;2023-02-22T07:17:44;20.87;;;9.67;;
25327;SDS011;13279;51.300;12.394;2023-02-22T07:20:11;21.03;;;11.17;;
25327;SDS011;13279;51.300;12.394;2023-02-22T07:22:39;20.00;;;9.90;;
25327;SDS011;13279;51.300;12.394;2023-02-22T07:25:06;20.07;;;9.90;;
25327;SDS011;13279;51.300;12.394;2023-02-22T07:27:35;22.40;;;9.83;;
25327;SDS011;13279;51.300;12.394;2023-02-22T07:30:06;19.80;;;9.77;;
25327;SDS011;13279;51.300;12.394;2023-02-22T07:32:34;19.83;;;8.93;;
25327;SDS011;13279;51.300;12.394;2023-02-22T07:35:01;19.97;;;9.57;;
25327;SDS011;13279;51.300;12.394;2023-02-22T07:37:29;20.33;;;9.33;;
25327;SDS011;13279;51.300;12.394;2023-02-22T07:39:56;19.30;;;9.07;;
25327;SDS011;13279;51.300;12.394;2023-02-22T07:42:24;18.33;;;9.03;;
25327;SDS011;13279;51.300;12.394;2023-02-22T07:44:51;21.83;;;9.87;;
25327;SDS011;13279;51.300;12.394;2023-02-22T07:47:20;20.00;;;9.30;;
25327;SDS011;13279;51.300;12.394;2023-02-22T07:49:47;20.43;;;9.87;;
25327;SDS011;13279;51.300;12.394;2023-02-22T07:52:15;16.47;;;9.50;;
25327;SDS011;13279;51.300;12.394;2023-02-22T07:54:44;20.97;;;10.13;;
25327;SDS011;13279;51.300;12.394;2023-02-22T07:57:12;18.23;;;9.23;;
25327;SDS011;13279;51.300;12.394;2023-02-22T07:59:40;16.73;;;8.47;;
25327;SDS011;13279;51.300;12.394;2023-02-22T08:02:12;20.47;;;9.33;;
25327;SDS011;13279;51.300;12.394;2023-02-22T08:04:43;26.17;;;9.90;;
25327;SDS011;13279;51.300;12.394;2023-02-22T08:07:10;19.87;;;10.07;;
25327;SDS011;13279;51.300;12.394;2023-02-22T08:09:37;22.00;;;9.17;;
25327;SDS011;13279;51.300;12.394;2023-02-22T08:12:05;24.13;;;9.43;;
25327;SDS011;13279;51.300;12.394;2023-02-22T08:14:33;19.30;;;9.03;;
25327;SDS011;13279;51.300;12.394;2023-02-22T08:17:00;17.70;;;9.07;;
25327;SDS011;13279;51.300;12.394;2023-02-22T08:19:28;17.07;;;8.83;;
25327;SDS011;13279;51.300;12.394;2023-02-22T08:21:57;19.30;;;10.63;;
25327;SDS011;13279;51.300;12.394;2023-02-22T08:24:26;18.40;;;8.93;;
25327;SDS011;13279;51.300;12.394;2023-02-22T08:26:54;19.70;;;9.90;;
25327;SDS011;13279;51.300;12.394;2023-02-22T08:29:21;21.53;;;9.50;;
25327;SDS011;13279;51.300;12.394;2023-02-22T08:31:52;22.03;;;10.97;;
25327;SDS011;13279;51.300;12.394;2023-02-22T08:34:19;19.40;;;9.73;;
25327;SDS011;13279;51.300;12.394;2023-02-22T08:36:47;23.67;;;10.10;;
25327;SDS011;13279;51.300;12.394;2023-02-22T08:39:15;20.77;;;10.70;;
25327;SDS011;13279;51.300;12.394;2023-02-22T08:41:43;23.87;;;10.43;;
25327;SDS011;13279;51.300;12.394;2023-02-22T08:44:11;31.57;;;11.53;;
25327;SDS011;13279;51.300;12.394;2023-02-22T08:46:39;33.30;;;12.13;;
25327;SDS011;13279;51.300;12.394;2023-02-22T08:49:06;29.73;;;10.63;;
25327;SDS011;13279;51.300;12.394;2023-02-22T08:51:33;21.13;;;10.90;;
25327;SDS011;13279;51.300;12.394;2023-02-22T08:54:02;24.50;;;11.77;;
25327;SDS011;13279;51.300;12.394;2023-02-22T08:56:32;20.83;;;10.50;;
25327;SDS011;13279;51.300;12.394;2023-02-22T08:59:00;25.03;;;11.27;;
25327;SDS011;13279;51.300;12.394;2023-02-22T09:01:27;26.97;;;12.93;;
25327;SDS011;13279;51.300;12.394;2023-02-22T09:03:55;25.37;;;11.10;;
25327;SDS011;13279;51.300;12.394;2023-02-22T09:06:23;18.43;;;10.03;;
25327;SDS011;13279;51.300;12.394;2023-02-22T09:08:50;22.77;;;10.30;;
25327;SDS011;13279;51.300;12.394;2023-02-22T09:11:18;23.97;;;10.80;;
25327;SDS011;13279;51.300;12.394;2023-02-22T09:13:47;21.43;;;9.40;;
25327;SDS011;13279;51.300;12.394;2023-02-22T09:16:14;18.10;;;9.70;;
25327;SDS011;13279;51.300;12.394;2023-02-22T09:18:42;21.40;;;10.77;;
25327;SDS011;13279;51.300;12.394;2023-02-22T09:21:10;19.90;;;10.57;;
25327;SDS011;13279;51.300;12.394;2023-02-22T09:23:38;21.27;;;10.67;;
25327;SDS011;13279;51.300;12.394;2023-02-22T09:26:06;20.03;;;9.97;;
25327;SDS011;13279;51.300;12.394;2023-02-22T09:28:35;22.37;;;11.07;;
25327;SDS011;13279;51.300;12.394;2023-02-22T09:31:04;22.10;;;10.13;;
25327;SDS011;13279;51.300;12.394;2023-02-22T09:33:34;26.87;;;11.80;;
25327;SDS011;13279;51.300;12.394;2023-02-22T09:36:03;20.93;;;10.43;;
25327;SDS011;13279;51.300;12.394;2023-02-22T09:38:31;24.83;;;11.20;;
25327;SDS011;13279;51.300;12.394;2023-02-22T09:41:05;23.50;;;10.73;;
25327;SDS011;13279;51.300;12.394;2023-02-22T09:43:39;20.10;;;9.77;;
25327;SDS011;13279;51.300;12.394;2023-02-22T09:46:20;21.53;;;10.73;;
25327;SDS011;13279;51.300;12.394;2023-02-22T09:48:54;19.23;;;9.20;;
25327;SDS011;13279;51.300;12.394;2023-02-22T09:51:28;22.63;;;10.70;;
25327;SDS011;13279;51.300;12.394;2023-02-22T09:54:02;17.20;;;9.33;;
25327;SDS011;13279;51.300;12.394;2023-02-22T09:56:32;18.97;;;10.17;;
25327;SDS011;13279;51.300;12.394;2023-02-22T09:59:01;22.73;;;11.00;;
25327;SDS011;13279;51.300;12.394;2023-02-22T10:01:33;24.00;;;10.47;;
25327;SDS011;13279;51.300;12.394;2023-02-22T10:04:08;20.37;;;10.17;;
25327;SDS011;13279;51.300;12.394;2023-02-22T10:06:48;25.97;;;11.30;;
25327;SDS011;13279;51.300;12.394;2023-02-22T10:09:29;23.50;;;10.00;;
25327;SDS011;13279;51.300;12.394;2023-02-22T10:12:04;23.57;;;10.73;;
25327;SDS011;13279;51.300;12.394;2023-02-22T10:14:41;22.73;;;11.63;;
25327;SDS011;13279;51.300;12.394;2023-02-22T10:17:21;18.97;;;9.07;;
25327;SDS011;13279;51.300;12.394;2023-02-22T10:20:01;24.07;;;10.23;;
25327;SDS011;13279;51.300;12.394;2023-02-22T10:22:43;22.03;;;10.10;;
25327;SDS011;13279;51.300;12.394;2023-02-22T10:25:22;21.03;;;10.17;;
25327;SDS011;13279;51.300;12.394;2023-02-22T10:27:53;19.93;;;10.20;;
25327;SDS011;13279;51.300;12.394;2023-02-22T10:30:24;23.80;;;10.83;;
25327;SDS011;13279;51.300;12.394;2023-02-22T10:32:57;18.50;;;9.57;;
25327;SDS011;13279;51.300;12.394;2023-02-22T10:35:31;26.30;;;9.97;;
25327;SDS011;13279;51.300;12.394;2023-02-22T10:38:05;22.67;;;9.77;;
25327;SDS011;13279;51.300;12.394;2023-02-22T10:40:42;20.03;;;9.47;;
25327;SDS011;13279;51.300;12.394;2023-02-22T10:43:12;23.03;;;10.87;;
25327;SDS011;13279;51.300;12.394;2023-02-22T10:45:39;20.03;;;10.03;;
25327;SDS011;13279;51.300;12.394;2023-02-22T10:48:09;18.60;;;9.80;;
25327;SDS011;13279;51.300;12.394;2023-02-22T10:50:40;22.77;;;10.40;;
25327;SDS011;13279;51.300;12.394;2023-02-22T10:53:10;18.73;;;9.53;;
25327;SDS011;13279;51.300;12.394;2023-02-22T10:58:38;18.80;;;9.63;;
25327;SDS011;13279;51.300;12.394;2023-02-22T11:01:22;20.90;;;11.37;;
25327;SDS011;13279;51.300;12.394;2023-02-22T11:03:57;19.60;;;10.63;;
25327;SDS011;13279;51.300;12.394;2023-02-22T11:06:26;19.43;;;10.60;;
25327;SDS011;13279;51.300;12.394;2023-02-22T11:09:08;20.70;;;9.80;;
25327;SDS011;13279;51.300;12.394;2023-02-22T11:11:39;20.70;;;9.93;;
25327;SDS011;13279;51.300;12.394;2023-02-22T11:14:08;22.90;;;11.70;;
25327;SDS011;13279;51.300;12.394;2023-02-22T11:16:36;18.43;;;9.57;;
25327;SDS011;13279;51.300;12.394;2023-02-22T11:19:18;20.77;;;10.10;;
25327;SDS011;13279;51.300;12.394;2023-02-22T11:21:50;21.87;;;10.83;;
25327;SDS011;13279;51.300;12.394;2023-02-22T11:24:19;18.27;;;9.53;;
25327;SDS011;13279;51.300;12.394;2023-02-22T11:26:52;20.50;;;9.10;;
25327;SDS011;13279;51.300;12.394;2023-02-22T11:29:24;18.07;;;9.73;;
25327;SDS011;13279;51.300;12.394;2023-02-22T11:31:53;19.80;;;9.87;;
25327;SDS011;13279;51.300;12.394;2023-02-22T11:34:27;18.90;;;10.13;;
25327;SDS011;13279;51.300;12.394;2023-02-22T11:39:46;18.50;;;10.17;;
25327;SDS011;13279;51.300;12.394;2023-02-22T11:42:21;18.80;;;9.90;;
25327;SDS011;13279;51.300;12.394;2023-02-22T11:45:06;16.43;;;10.07;;
25327;SDS011;13279;51.300;12.394;2023-02-22T11:47:35;15.73;;;8.53;;
25327;SDS011;13279;51.300;12.394;2023-02-22T11:50:24;18.60;;;9.53;;
25327;SDS011;13279;51.300;12.394;2023-02-22T11:52:58;18.80;;;10.27;;
25327;SDS011;13279;51.300;12.394;2023-02-22T11:55:43;17.77;;;9.63;;
25327;SDS011;13279;51.300;12.394;2023-02-22T11:58:22;16.63;;;9.10;;
25327;SDS011;13279;51.300;12.394;2023-02-22T12:00:57;17.73;;;9.83;;
25327;SDS011;13279;51.300;12.394;2023-02-22T12:06:29;18.73;;;9.67;;
25327;SDS011;13279;51.300;12.394;2023-02-22T12:09:07;23.20;;;9.63;;
25327;SDS011;13279;51.300;12.394;2023-02-22T12:11:42;20.13;;;10.50;;
25327;SDS011;13279;51.300;12.394;2023-02-22T12:14:19;16.93;;;9.53;;
25327;SDS011;13279;51.300;12.394;2023-02-22T12:17:01;16.33;;;9.20;;
25327;SDS011;13279;51.300;12.394;2023-02-22T12:19:41;18.83;;;9.40;;
25327;SDS011;13279;51.300;12.394;2023-02-22T12:22:14;16.33;;;9.67;;
25327;SDS011;13279;51.300;12.394;2023-02-22T12:24:47;16.03;;;8.87;;
25327;SDS011;13279;51.300;12.394;2023-02-22T12:27:19;14.70;;;9.23;;
25327;SDS011;13279;51.300;12.394;2023-02-22T12:29:53;18.67;;;9.47;;
25327;SDS011;13279;51.300;12.394;2023-02-22T12:32:27;14.53;;;8.60;;
25327;SDS011;13279;51.300;12.394;2023-02-22T12:35:00;16.50;;;8.03;;
25327;SDS011;13279;51.300;12.394;2023-02-22T12:37:39;12.87;;;8.37;;
25327;SDS011;13279;51.300;12.394;2023-02-22T12:40:19;13.60;;;7.93;;
25327;SDS011;13279;51.300;12.394;2023-02-22T12:42:55;12.90;;;8.30;;
25327;SDS011;13279;51.300;12.394;2023-02-22T12:45:28;17.83;;;7.87;;
25327;SDS011;13279;51.300;12.394;2023-02-22T12:48:06;17.10;;;8.70;;
25327;SDS011;13279;51.300;12.394;2023-02-22T12:50:48;13.83;;;8.20;;
25327;SDS011;13279;51.300;12.394;2023-02-22T12:53:23;14.40;;;7.50;;
25327;SDS011;13279;51.300;12.394;2023-02-22T12:55:57;13.77;;;8.07;;
25327;SDS011;13279;51.300;12.394;2023-02-22T12:58:31;12.53;;;7.67;;
25327;SDS011;13279;51.300;12.394;2023-02-22T13:01:05;12.60;;;7.70;;
25327;SDS011;13279;51.300;12.394;2023-02-22T13:03:42;15.17;;;8.03;;
25327;SDS011;13279;51.300;12.394;2023-02-22T13:06:13;12.53;;;7.33;;
25327;SDS011;13279;51.300;12.394;2023-02-22T13:08:54;10.70;;;7.03;;
25327;SDS011;13279;51.300;12.394;2023-02-22T13:11:41;11.90;;;7.00;;
25327;SDS011;13279;51.300;12.394;2023-02-22T13:14:15;14.53;;;7.00;;
25327;SDS011;13279;51.300;12.394;2023-02-22T13:16:59;8.90;;;6.00;;
25327;SDS011;13279;51.300;12.394;2023-02-22T13:19:37;11.13;;;6.47;;
25327;SDS011;13279;51.300;12.394;2023-02-22T13:22:12;12.13;;;6.60;;
25327;SDS011;13279;51.300;12.394;2023-02-22T13:24:51;11.37;;;6.50;;
25327;SDS011;13279;51.300;12.394;2023-02-22T13:27:27;15.27;;;7.10;;
25327;SDS011;13279;51.300;12.394;2023-02-22T13:30:00;10.43;;;6.07;;
25327;SDS011;13279;51.300;12.394;2023-02-22T13:32:32;11.53;;;5.87;;
25327;SDS011;13279;51.300;12.394;2023-02-22T13:35:14;11.57;;;6.80;;
25327;SDS011;13279;51.300;12.394;2023-02-22T13:38:06;12.10;;;6.00;;
25327;SDS011;13279;51.300;12.394;2023-02-22T13:44:14;11.37;;;6.00;;
25327;SDS011;13279;51.300;12.394;2023-02-22T13:47:18;9.27;;;5.80;;
25327;SDS011;13279;51.300;12.394;2023-02-22T13:52:56;8.70;;;6.07;;
25327;SDS011;13279;51.300;12.394;2023-02-22T13:55:25;12.90;;;6.47;;
25327;SDS011;13279;51.300;12.394;2023-02-22T13:58:02;14.73;;;7.87;;
25327;SDS011;13279;51.300;12.394;2023-02-22T14:00:39;10.57;;;7.07;;
25327;SDS011;13279;51.300;12.394;2023-02-22T14:06:01;10.23;;;6.50;;
25327;SDS011;13279;51.300;12.394;2023-02-22T14:08:37;11.67;;;6.93;;
25327;SDS011;13279;51.300;12.394;2023-02-22T14:14:23;11.00;;;6.87;;
25327;SDS011;13279;51.300;12.394;2023-02-22T14:22:47;13.63;;;6.37;;
25327;SDS011;13279;51.300;12.394;2023-02-22T14:25:30;13.10;;;5.57;;
25327;SDS011;13279;51.300;12.394;2023-02-22T14:28:04;8.83;;;5.90;;
25327;SDS011;13279;51.300;12.394;2023-02-22T14:30:35;10.40;;;6.30;;
25327;SDS011;13279;51.300;12.394;2023-02-22T14:36:06;10.60;;;5.87;;
25327;SDS011;13279;51.300;12.394;2023-02-22T14:38:34;8.83;;;5.30;;
25327;SDS011;13279;51.300;12.394;2023-02-22T14:41:02;8.27;;;5.00;;
25327;SDS011;13279;51.300;12.394;2023-02-22T14:43:34;9.00;;;5.10;;
25327;SDS011;13279;51.300;12.394;2023-02-22T14:46:05;8.07;;;5.13;;
25327;SDS011;13279;51.300;12.394;2023-02-22T14:48:38;9.23;;;5.13;;
25327;SDS011;13279;51.300;12.394;2023-02-22T14:51:12;10.20;;;4.97;;
25327;SDS011;13279;51.300;12.394;2023-02-22T14:53:43;9.30;;;5.40;;
25327;SDS011;13279;51.300;12.394;2023-02-22T14:56:14;10.97;;;5.63;;
25327;SDS011;13279;51.300;12.394;2023-02-22T14:58:48;10.10;;;4.63;;
25327;SDS011;13279;51.300;12.394;2023-02-22T15:01:23;9.53;;;4.87;;
25327;SDS011;13279;51.300;12.394;2023-02-22T15:03:55;10.20;;;5.20;;
25327;SDS011;13279;51.300;12.394;2023-02-22T15:06:24;6.27;;;4.53;;
25327;SDS011;13279;51.300;12.394;2023-02-22T15:09:04;6.53;;;4.93;;
25327;SDS011;13279;51.300;12.394;2023-02-22T15:11:34;7.20;;;4.77;;
25327;SDS011;13279;51.300;12.394;2023-02-22T15:14:01;6.47;;;4.50;;
25327;SDS011;13279;51.300;12.394;2023-02-22T15:16:44;8.50;;;3.93;;
25327;SDS011;13279;51.300;12.394;2023-02-22T15:19:14;7.90;;;4.30;;
25327;SDS011;13279;51.300;12.394;2023-02-22T15:21:49;11.03;;;4.63;;
25327;SDS011;13279;51.300;12.394;2023-02-22T15:24:20;7.87;;;4.13;;
25327;SDS011;13279;51.300;12.394;2023-02-22T15:26:51;8.83;;;4.37;;